createdAt,value
2022-08-09T00:01:48.401Z,58.88
2022-08-09T00:04:34.624Z,60.14
2022-08-09T00:07:10.479Z,58.44
2022-08-09T00:09:40.287Z,57.59
2022-08-09T00:12:15.573Z,58.07
2022-08-09T00:14:55.951Z,58.82
2022-08-09T00:18:05.035Z,54.91
2022-08-09T00:20:15.445Z,53.99
2022-08-09T00:22:47.281Z,53.20
2022-08-09T00:25:23.273Z,53.56
2022-08-09T00:28:03.870Z,54.40
2022-08-09T00:30:33.614Z,56.03
2022-08-09T00:33:02.547Z,55.27
2022-08-09T00:35:42.868Z,57.43
2022-08-09T00:38:15.289Z,56.11
2022-08-09T00:40:53.276Z,55.18
2022-08-09T00:44:10.585Z,55.24
2022-08-09T00:46:14.526Z,56.85
2022-08-09T00:48:57.341Z,55.39
2022-08-09T00:51:33.794Z,54.23
2022-08-09T00:54:12.954Z,54.20
2022-08-09T00:56:44.597Z,53.34
2022-08-09T00:59:13.782Z,52.90
2022-08-09T01:01:51.587Z,54.32
2022-08-09T01:04:31.431Z,55.19
2022-08-09T01:07:13.893Z,55.74
2022-08-09T01:09:50.438Z,55.50
2022-08-09T01:12:29.629Z,55.36
2022-08-09T01:15:09.879Z,53.88
2022-08-09T01:17:52.871Z,54.16
2022-08-09T01:20:41.302Z,56.49
2022-08-09T01:24:00.773Z,56.64
2022-08-09T01:26:38.821Z,56.63
2022-08-09T01:29:10.479Z,56.51
2022-08-09T01:32:32.495Z,55.40
2022-08-09T01:34:37.710Z,55.59
2022-08-09T01:37:09.623Z,55.46
2022-08-09T01:39:45.713Z,56.01
2022-08-09T01:42:17.953Z,57.02
2022-08-09T01:44:52.358Z,56.74
2022-08-09T01:47:22.636Z,56.88
2022-08-09T01:49:54.692Z,59.89
2022-08-09T01:52:25.162Z,61.07
2022-08-09T01:54:58.809Z,61.52
2022-08-09T01:57:40.141Z,62.88
2022-08-09T02:00:35.016Z,62.44
2022-08-09T02:03:07.660Z,62.17
2022-08-09T02:06:03.527Z,63.41
2022-08-09T02:08:56.953Z,64.90
2022-08-09T02:11:42.091Z,65.68
2022-08-09T02:14:25.648Z,67.55
2022-08-09T02:16:59.667Z,67.25
2022-08-09T02:19:45.801Z,66.36
2022-08-09T02:22:38.023Z,65.33
2022-08-09T02:25:15.290Z,67.16
2022-08-09T02:28:00.489Z,67.80
2022-08-09T02:30:38.853Z,68.26
2022-08-09T02:33:14.522Z,68.67
2022-08-09T02:36:02.926Z,68.18
2022-08-09T02:38:37.697Z,68.01
2022-08-09T02:41:10.622Z,68.69
2022-08-09T02:43:53.757Z,68.46
2022-08-09T02:46:28.899Z,71.52
2022-08-09T02:49:02.529Z,70.93
2022-08-09T02:54:13.713Z,72.48
2022-08-09T02:56:51.300Z,71.96
2022-08-09T02:59:36.414Z,73.41
2022-08-09T03:02:12.025Z,73.15
2022-08-09T03:04:43.282Z,73.64
2022-08-09T03:07:15.390Z,73.58
2022-08-09T03:09:53.958Z,72.34
2022-08-09T03:12:27.304Z,72.79
2022-08-09T03:14:57.786Z,74.81
2022-08-09T03:17:30.295Z,72.88
2022-08-09T03:20:05.254Z,75.85
2022-08-09T03:22:44.722Z,73.39
2022-08-09T03:25:26.053Z,73.37
2022-08-09T03:28:11.326Z,72.57
2022-08-09T03:30:40.728Z,72.42
2022-08-09T03:33:18.799Z,70.04
2022-08-09T03:36:15.508Z,71.79
2022-08-09T03:38:42.867Z,69.56
2022-08-09T03:41:15.389Z,70.71
2022-08-09T03:44:04.004Z,75.35
2022-08-09T03:46:36.190Z,75.75
2022-08-09T03:49:09.572Z,76.00
2022-08-09T03:51:43.808Z,75.70
2022-08-09T03:54:32.314Z,75.62
2022-08-09T03:57:04.338Z,74.40
2022-08-09T03:59:53.910Z,75.60
2022-08-09T04:02:27.919Z,73.97
2022-08-09T04:05:01.379Z,73.29
2022-08-09T04:07:52.619Z,72.83
2022-08-09T04:10:28.997Z,72.54
2022-08-09T04:13:04.213Z,73.14
2022-08-09T04:15:52.545Z,73.89
2022-08-09T04:18:24.922Z,72.44
2022-08-09T04:20:55.689Z,73.90
2022-08-09T04:23:25.950Z,72.17
2022-08-09T04:25:55.965Z,71.12
2022-08-09T04:28:31.424Z,70.49
2022-08-09T04:31:09.162Z,68.80
2022-08-09T04:33:52.258Z,71.86
2022-08-09T04:36:26.090Z,70.71
2022-08-09T04:38:55.968Z,71.46
2022-08-09T04:41:32.190Z,68.63
2022-08-09T04:44:06.816Z,66.70
2022-08-09T04:46:58.419Z,67.12
2022-08-09T04:49:52.978Z,65.49
2022-08-09T04:52:27.432Z,69.92
2022-08-09T04:54:57.423Z,69.99
2022-08-09T04:57:54.409Z,68.49
2022-08-09T05:00:17.190Z,67.90
2022-08-09T05:02:51.638Z,68.79
2022-08-09T05:05:32.052Z,64.88
2022-08-09T05:08:13.850Z,61.50
2022-08-09T05:10:44.484Z,60.31
2022-08-09T05:13:14.330Z,58.69
2022-08-09T05:15:48.228Z,59.21
2022-08-09T05:18:50.701Z,58.22
2022-08-09T05:21:23.127Z,56.49
2022-08-09T05:24:01.443Z,56.53
2022-08-09T05:26:45.275Z,55.15
2022-08-09T05:29:22.178Z,54.04
2022-08-09T05:31:57.547Z,53.75
2022-08-09T05:34:30.712Z,52.26
2022-08-09T05:37:06.089Z,51.82
2022-08-09T05:39:43.140Z,51.54
2022-08-09T05:42:20.992Z,48.40
2022-08-09T05:44:52.572Z,48.69
2022-08-09T05:47:22.261Z,49.77
2022-08-09T05:50:25.926Z,48.30
2022-08-09T05:52:42.349Z,49.36
2022-08-09T05:55:20.857Z,47.26
2022-08-09T05:57:56.524Z,45.81
2022-08-09T06:00:28.699Z,46.83
2022-08-09T06:02:58.576Z,45.94
2022-08-09T06:05:31.372Z,49.48
2022-08-09T06:08:19.431Z,46.29
2022-08-09T06:10:56.151Z,44.79
2022-08-09T06:13:28.673Z,43.42
2022-08-09T06:16:04.651Z,41.13
2022-08-09T06:18:35.280Z,46.08
2022-08-09T06:21:06.508Z,48.70
2022-08-09T06:23:57.810Z,50.52
2022-08-09T06:26:28.422Z,48.07
2022-08-09T06:28:59.679Z,47.38
2022-08-09T06:31:39.730Z,46.19
2022-08-09T06:34:22.598Z,44.13
2022-08-09T06:36:57.231Z,44.08
2022-08-09T06:39:47.472Z,41.11
2022-08-09T06:42:20.225Z,40.63
2022-08-09T06:44:54.250Z,40.22
2022-08-09T06:47:24.038Z,36.28
2022-08-09T06:50:13.449Z,34.79
2022-08-09T06:52:48.486Z,33.67
2022-08-09T06:55:23.072Z,33.46
2022-08-09T06:58:03.244Z,32.00
2022-08-09T07:00:54.686Z,31.76
2022-08-09T07:03:28.607Z,32.07
2022-08-09T07:06:04.127Z,30.72
2022-08-09T07:08:37.216Z,30.67
2022-08-09T07:11:12.781Z,29.40
2022-08-09T07:14:05.630Z,28.79
2022-08-09T07:16:42.708Z,28.68
2022-08-09T07:19:22.829Z,28.07
2022-08-09T07:21:57.699Z,26.85
2022-08-09T07:24:32.577Z,25.69
2022-08-09T07:27:10.970Z,27.44
2022-08-09T07:29:58.696Z,25.05
2022-08-09T07:32:32.239Z,27.76
2022-08-09T07:35:10.032Z,27.21
2022-08-09T07:37:43.938Z,27.30
2022-08-09T07:40:17.082Z,25.70
2022-08-09T07:42:55.750Z,26.06
2022-08-09T07:45:37.401Z,26.70
2022-08-09T07:48:28.316Z,27.09
2022-08-09T07:51:09.527Z,27.42
2022-08-09T07:54:06.993Z,28.21
2022-08-09T07:56:38.730Z,27.61
2022-08-09T07:59:25.091Z,27.83
2022-08-09T08:02:05.082Z,28.83
2022-08-09T08:04:34.283Z,28.33
2022-08-09T08:07:15.034Z,28.55
2022-08-09T08:09:55.258Z,27.21
2022-08-09T08:12:43.743Z,28.15
2022-08-09T08:15:16.842Z,27.28
2022-08-09T08:17:55.147Z,27.42
2022-08-09T08:20:29.401Z,27.57
2022-08-09T08:23:01.496Z,27.42
2022-08-09T08:25:40.092Z,26.42
2022-08-09T08:28:14.297Z,24.33
2022-08-09T08:30:44.319Z,24.78
2022-08-09T08:33:24.377Z,25.33
2022-08-09T08:35:58.981Z,25.68
2022-08-09T08:38:30.322Z,25.67
2022-08-09T08:41:01.456Z,25.36
2022-08-09T08:43:36.099Z,22.88
2022-08-09T08:46:32.042Z,23.34
2022-08-09T08:49:00.551Z,23.32
2022-08-09T08:51:38.835Z,22.76
2022-08-09T08:54:20.612Z,22.77
2022-08-09T08:56:59.837Z,22.44
2022-08-09T08:59:46.725Z,20.27
2022-08-09T09:02:31.347Z,19.86
2022-08-09T09:05:03.147Z,18.08
2022-08-09T09:07:36.744Z,17.73
2022-08-09T09:10:10.252Z,17.37
2022-08-09T09:12:39.782Z,16.99
2022-08-09T09:15:09.451Z,18.11
2022-08-09T09:17:48.248Z,17.64
2022-08-09T09:20:21.316Z,18.62
2022-08-09T09:22:52.767Z,18.54
2022-08-09T09:26:02.126Z,19.02
2022-08-09T09:29:02.152Z,20.33
2022-08-09T09:32:06.221Z,20.32
2022-08-09T09:34:17.957Z,19.24
2022-08-09T09:36:53.022Z,18.56
2022-08-09T09:39:25.841Z,18.46
2022-08-09T09:42:25.663Z,18.81
2022-08-09T09:45:00.310Z,18.28
2022-08-09T09:47:30.460Z,19.05
2022-08-09T09:50:14.206Z,20.09
2022-08-09T09:52:56.114Z,19.82
2022-08-09T09:55:32.489Z,21.25
2022-08-09T09:58:16.413Z,22.70
2022-08-09T10:00:55.527Z,21.74
2022-08-09T10:03:43.899Z,20.59
2022-08-09T10:06:13.900Z,18.99
2022-08-09T10:08:54.785Z,18.41
2022-08-09T10:12:00.132Z,19.07
2022-08-09T10:14:30.701Z,19.91
2022-08-09T10:17:24.004Z,21.06
2022-08-09T10:19:59.887Z,22.12
2022-08-09T10:22:34.317Z,22.14
2022-08-09T10:25:11.966Z,22.94
2022-08-09T10:27:57.198Z,21.63
2022-08-09T10:34:07.655Z,19.52
2022-08-09T10:36:11.698Z,19.65
2022-08-09T10:38:56.141Z,20.66
2022-08-09T10:41:28.263Z,21.82
2022-08-09T10:44:01.276Z,22.32
2022-08-09T10:46:57.487Z,22.17
2022-08-09T10:49:51.280Z,21.40
2022-08-09T10:52:53.836Z,20.61
2022-08-09T10:55:26.037Z,20.92
2022-08-09T10:58:00.374Z,19.92
2022-08-09T11:01:10.719Z,19.73
2022-08-09T11:03:46.906Z,20.30
2022-08-09T11:06:22.772Z,20.92
2022-08-09T11:08:53.283Z,20.49
2022-08-09T11:11:24.159Z,19.58
2022-08-09T11:14:31.912Z,19.54
2022-08-09T11:17:01.291Z,17.96
2022-08-09T11:20:11.594Z,17.81
2022-08-09T11:23:07.320Z,18.40
2022-08-09T11:25:49.967Z,18.27
2022-08-09T11:28:56.073Z,18.34
2022-08-09T11:31:53.174Z,16.56
2022-08-09T11:34:36.242Z,15.72
2022-08-09T11:37:07.386Z,16.75
2022-08-09T11:40:01.354Z,16.67
2022-08-09T11:42:43.592Z,16.42
2022-08-09T11:45:21.988Z,16.85
2022-08-09T11:47:54.563Z,16.95
2022-08-09T11:50:56.241Z,16.70
2022-08-09T11:53:58.093Z,18.03
2022-08-09T11:56:41.726Z,17.93
2022-08-09T11:59:14.301Z,17.49
2022-08-09T12:02:18.044Z,17.03
2022-08-09T12:04:37.626Z,18.34
2022-08-09T12:07:08.205Z,17.10
2022-08-09T12:09:37.644Z,19.30
2022-08-09T12:12:12.098Z,20.26
2022-08-09T12:15:08.494Z,18.43
2022-08-09T12:17:42.339Z,16.61
2022-08-09T12:20:22.007Z,17.91
2022-08-09T12:22:55.716Z,17.27
2022-08-09T12:25:36.817Z,17.59
2022-08-09T12:29:12.149Z,17.67
2022-08-09T12:31:00.655Z,17.94
2022-08-09T12:33:51.137Z,17.66
2022-08-09T12:36:31.199Z,19.23
2022-08-09T12:39:02.341Z,19.25
2022-08-09T12:41:39.649Z,19.85
2022-08-09T12:44:12.939Z,20.23
2022-08-09T12:46:49.262Z,18.65
2022-08-09T12:49:21.446Z,19.93
2022-08-09T12:52:02.454Z,19.53
2022-08-09T12:56:10.814Z,20.15
2022-08-09T12:57:41.177Z,20.87
2022-08-09T13:00:17.640Z,20.21
2022-08-09T13:02:54.069Z,21.77
2022-08-09T13:05:25.474Z,21.73
2022-08-09T13:08:14.574Z,20.45
2022-08-09T13:10:52.301Z,19.75
2022-08-09T13:14:11.880Z,20.36
2022-08-09T13:16:21.950Z,19.42
2022-08-09T13:18:54.162Z,19.97
2022-08-09T13:22:37.480Z,19.35
2022-08-09T13:24:53.769Z,19.50
2022-08-09T13:27:29.177Z,19.40
2022-08-09T13:30:04.310Z,18.67
2022-08-09T13:32:50.327Z,18.44
2022-08-09T13:35:21.022Z,19.06
2022-08-09T13:38:03.493Z,19.33
2022-08-09T13:41:55.828Z,19.70
2022-08-09T13:43:22.804Z,19.92
2022-08-09T13:46:44.532Z,19.46
2022-08-09T13:48:53.721Z,18.96
2022-08-09T13:51:22.644Z,19.13
2022-08-09T13:53:56.387Z,19.60
2022-08-09T13:56:26.974Z,19.63
2022-08-09T13:58:56.814Z,20.27
2022-08-09T14:01:56.309Z,21.38
2022-08-09T14:04:14.765Z,21.57
2022-08-09T14:06:56.740Z,21.88
2022-08-09T14:09:26.599Z,23.88
2022-08-09T14:11:59.246Z,24.58
2022-08-09T14:14:32.069Z,24.86
2022-08-09T14:17:03.912Z,26.26
2022-08-09T14:19:33.922Z,26.66
2022-08-09T14:22:02.826Z,25.79
2022-08-09T14:24:32.480Z,27.89
2022-08-09T14:27:19.725Z,26.76
2022-08-09T14:30:34.051Z,28.79
2022-08-09T14:32:38.555Z,31.05
2022-08-09T14:35:08.949Z,31.90
2022-08-09T14:37:41.137Z,32.07
2022-08-09T14:40:38.796Z,31.57
2022-08-09T14:43:18.585Z,32.36
2022-08-09T14:46:58.036Z,31.15
2022-08-09T14:48:36.744Z,31.27
2022-08-09T14:51:06.524Z,31.61
2022-08-09T14:53:39.092Z,31.86
2022-08-09T14:56:09.349Z,31.37
2022-08-09T14:58:45.371Z,31.18
2022-08-09T15:01:15.593Z,31.09
2022-08-09T15:03:48.809Z,31.21
2022-08-09T15:06:17.740Z,30.63
2022-08-09T15:08:55.361Z,30.64
2022-08-09T15:11:25.775Z,32.15
2022-08-09T15:14:04.878Z,31.87
2022-08-09T15:16:43.043Z,31.37
2022-08-09T15:19:16.203Z,30.08
2022-08-09T15:21:56.703Z,28.87
2022-08-09T15:24:30.736Z,29.13
2022-08-09T15:26:59.843Z,27.85
2022-08-09T15:31:00.671Z,26.41
2022-08-09T15:32:29.000Z,26.94
2022-08-09T15:35:00.617Z,27.03
2022-08-09T15:37:38.136Z,26.07
2022-08-09T15:40:32.211Z,26.35
2022-08-09T15:43:02.586Z,25.97
2022-08-09T15:46:07.703Z,25.64
2022-08-09T15:48:28.500Z,25.90
2022-08-09T15:50:58.614Z,25.71
2022-08-09T15:54:06.903Z,26.06
2022-08-09T15:56:29.319Z,25.40
2022-08-09T15:59:00.244Z,25.96
2022-08-09T16:01:35.534Z,26.03
2022-08-09T16:04:05.156Z,26.25
2022-08-09T16:06:35.822Z,26.93
2022-08-09T16:09:07.107Z,28.28
2022-08-09T16:11:36.144Z,28.66
2022-08-09T16:14:07.992Z,29.57
2022-08-09T16:16:45.655Z,29.98
2022-08-09T16:19:18.107Z,30.06
2022-08-09T16:21:51.966Z,30.37
2022-08-09T16:24:33.376Z,30.66
2022-08-09T16:27:05.195Z,30.91
2022-08-09T16:29:36.788Z,30.29
2022-08-09T16:32:19.170Z,29.25
2022-08-09T16:34:58.639Z,28.11
2022-08-09T16:37:53.107Z,27.61
2022-08-09T16:40:40.239Z,27.24
2022-08-09T16:43:09.540Z,27.42
2022-08-09T16:45:44.110Z,27.11
2022-08-09T16:48:37.912Z,26.75
2022-08-09T16:51:07.366Z,26.40
2022-08-09T16:53:47.231Z,26.86
2022-08-09T16:56:26.625Z,26.72
2022-08-09T16:59:01.207Z,26.74
2022-08-09T17:01:33.685Z,27.09
2022-08-09T17:04:05.452Z,26.34
2022-08-09T17:08:41.128Z,26.46
2022-08-09T17:09:45.075Z,25.76
2022-08-09T17:12:14.962Z,25.62
2022-08-09T17:14:47.604Z,25.73
2022-08-09T17:17:26.135Z,26.10
2022-08-09T17:20:32.308Z,27.13
2022-08-09T17:22:50.067Z,27.74
2022-08-09T17:25:22.043Z,27.95
2022-08-09T17:27:55.027Z,28.43
2022-08-09T17:30:26.522Z,28.85
2022-08-09T17:33:01.417Z,28.25
2022-08-09T17:35:41.022Z,26.75
2022-08-09T17:38:24.533Z,26.59
2022-08-09T17:40:59.313Z,26.35
2022-08-09T17:43:34.535Z,25.87
2022-08-09T17:46:07.621Z,25.69
2022-08-09T17:48:51.697Z,26.10
2022-08-09T17:51:23.291Z,26.89
2022-08-09T17:53:55.417Z,26.66
2022-08-09T17:56:28.885Z,26.69
2022-08-09T17:59:11.974Z,26.57
2022-08-09T18:02:06.248Z,27.06
2022-08-09T18:04:34.796Z,27.23
2022-08-09T18:07:07.605Z,27.10
2022-08-09T18:09:41.806Z,27.02
2022-08-09T18:12:14.773Z,27.13
2022-08-09T18:14:53.380Z,27.09
2022-08-09T18:17:27.325Z,27.02
2022-08-09T18:20:55.300Z,27.03
2022-08-09T18:23:07.007Z,27.54
2022-08-09T18:25:50.695Z,26.98
2022-08-09T18:30:41.748Z,26.59
2022-08-09T18:31:12.682Z,26.77
2022-08-09T18:33:44.230Z,27.36
2022-08-09T18:36:31.900Z,27.73
2022-08-09T18:39:03.272Z,27.79
2022-08-09T18:41:34.756Z,27.70
2022-08-09T18:44:13.105Z,27.83
2022-08-09T18:46:51.210Z,26.63
2022-08-09T18:49:41.479Z,28.16
2022-08-09T18:52:13.565Z,28.05
2022-08-09T18:54:52.434Z,28.94
2022-08-09T18:57:23.196Z,28.54
2022-08-09T18:59:56.542Z,28.44
2022-08-09T19:02:31.993Z,28.14
2022-08-09T19:05:20.420Z,28.72
2022-08-09T19:08:04.265Z,28.82
2022-08-09T19:10:40.854Z,28.13
2022-08-09T19:13:20.117Z,27.86
2022-08-09T19:16:00.936Z,27.13
2022-08-09T19:18:35.812Z,27.23
2022-08-09T19:21:09.396Z,26.76
2022-08-09T19:24:39.489Z,27.43
2022-08-09T19:26:35.155Z,27.71
2022-08-09T19:29:15.730Z,27.90
2022-08-09T19:31:51.501Z,28.03
2022-08-09T19:34:22.818Z,28.31
2022-08-09T19:36:53.385Z,29.26
2022-08-09T19:39:43.129Z,29.51
2022-08-09T19:42:15.129Z,32.20
2022-08-09T19:44:50.606Z,32.42
2022-08-09T19:47:22.648Z,32.69
2022-08-09T19:50:47.890Z,32.76
2022-08-09T19:52:49.370Z,32.98
2022-08-09T19:55:25.855Z,33.41
2022-08-09T19:58:01.743Z,33.07
2022-08-09T20:00:30.734Z,32.68
2022-08-09T20:04:16.898Z,33.14
2022-08-09T20:05:50.766Z,33.24
2022-08-09T20:08:24.728Z,33.00
2022-08-09T20:11:04.431Z,33.16
2022-08-09T20:13:37.171Z,32.90
2022-08-09T20:16:34.294Z,32.48
2022-08-09T20:19:43.158Z,32.65
2022-08-09T20:22:09.711Z,31.86
2022-08-09T20:24:40.840Z,31.65
2022-08-09T20:27:11.570Z,31.66
2022-08-09T20:29:44.462Z,31.52
2022-08-09T20:32:30.483Z,31.75
2022-08-09T20:35:01.366Z,31.69
2022-08-09T20:38:18.965Z,31.53
2022-08-09T20:40:27.293Z,31.83
2022-08-09T20:43:00.350Z,31.77
2022-08-09T20:46:00.317Z,31.28
2022-08-09T20:48:39.071Z,31.05
2022-08-09T20:51:19.170Z,32.23
2022-08-09T20:53:49.114Z,32.19
2022-08-09T20:56:21.862Z,31.66
2022-08-09T20:58:54.447Z,31.57
2022-08-09T21:01:34.341Z,31.17
2022-08-09T21:05:56.478Z,32.24
2022-08-09T21:07:12.108Z,32.13
2022-08-09T21:09:45.776Z,31.15
2022-08-09T21:14:48.242Z,32.83
2022-08-09T21:18:23.417Z,33.40
2022-08-09T21:20:23.052Z,32.92
2022-08-09T21:22:55.450Z,33.21
2022-08-09T21:25:44.326Z,33.66
2022-08-09T21:28:35.172Z,34.03
2022-08-09T21:31:18.221Z,33.95
2022-08-09T21:33:52.985Z,33.62
2022-08-09T21:36:25.844Z,33.82
2022-08-09T21:38:59.601Z,33.66
2022-08-09T21:42:04.668Z,33.38
2022-08-09T21:44:33.852Z,33.36
2022-08-09T21:47:05.871Z,33.43
2022-08-09T21:49:42.950Z,34.03
2022-08-09T21:52:16.342Z,33.51
2022-08-09T21:54:49.567Z,33.68
2022-08-09T21:57:39.191Z,33.56
2022-08-09T22:00:26.016Z,34.21
2022-08-09T22:02:58.953Z,33.92
2022-08-09T22:05:36.781Z,34.09
2022-08-09T22:08:13.052Z,34.21
2022-08-09T22:11:04.922Z,34.89
2022-08-09T22:13:34.481Z,35.15
2022-08-09T22:16:07.479Z,35.99
2022-08-09T22:18:38.105Z,36.13
2022-08-09T22:21:10.001Z,36.03
2022-08-09T22:23:59.618Z,36.66
2022-08-09T22:26:34.893Z,36.70
2022-08-09T22:29:09.370Z,36.70
2022-08-09T22:31:50.324Z,36.79
2022-08-09T22:34:26.698Z,37.21
2022-08-09T22:36:58.540Z,37.31
2022-08-09T22:39:55.222Z,37.06
2022-08-09T22:42:22.285Z,37.04
2022-08-09T22:48:04.505Z,37.07
2022-08-09T22:48:16.425Z,37.30
2022-08-09T22:50:33.228Z,36.91
2022-08-09T22:53:04.408Z,37.69
2022-08-09T22:56:05.848Z,37.20
2022-08-09T22:58:33.382Z,36.97
2022-08-09T23:01:05.488Z,37.31
2022-08-09T23:04:03.694Z,37.85
2022-08-09T23:06:32.573Z,37.59
2022-08-09T23:09:06.676Z,37.70
2022-08-09T23:11:35.853Z,37.17
2022-08-09T23:14:09.872Z,37.71
2022-08-09T23:16:39.270Z,37.38
2022-08-09T23:19:08.124Z,37.50
2022-08-09T23:21:38.316Z,37.46
2022-08-09T23:24:10.079Z,36.45
2022-08-09T23:26:40.608Z,36.08
2022-08-09T23:29:13.632Z,36.47
2022-08-09T23:31:42.790Z,36.35
2022-08-09T23:34:11.846Z,36.38
2022-08-09T23:36:40.871Z,36.02
2022-08-09T23:39:11.284Z,36.33
2022-08-09T23:41:40.222Z,35.96
2022-08-09T23:44:09.129Z,35.38
2022-08-09T23:46:38.050Z,35.66
2022-08-09T23:49:06.845Z,35.98
2022-08-09T23:51:35.722Z,36.33
2022-08-09T23:54:05.123Z,36.48
2022-08-09T23:56:52.325Z,36.57
2022-08-09T23:59:24.859Z,36.76
